Mid-Ohio Valley Regional (PKB)

 

Airport Diagram
Current Weather/Forecast (VFR Conditions)
METAR KPKB 182153Z 00000KT 10SM BKN100 15/03 A2986 RMK AO2 SLP112 T01500028
TAF KPKB 181736Z 1818/1918 24005KT P6SM VCSH BKN060 FM182200 25003KT P6SM SCT100 FM190200 00000KT P6SM SCT180 FM191400 25004KT P6SM FEW100

Airport Information

All Charts
General
Chart Name View
AIRPORT DIAGRAM
AIRPORT DIAGRAM
TAKEOFF MINIMUMS
ALTERNATE MINIMUMS
TAKEOFF MINIMUMS
ALTERNATE MINIMUMS

Approaches
Chart Name Download
ILS OR LOC RWY 03
RNAV (GPS) RWY 03
RNAV (GPS) RWY 10
RNAV (GPS) RWY 21
RNAV (GPS) RWY 28
VOR RWY 21
ILS OR LOC RWY 03
RNAV (GPS) RWY 03
RNAV (GPS) RWY 10
RNAV (GPS) RWY 21
RNAV (GPS) RWY 28
VOR RWY 21


Airport Statistics
Departures Arrivals Local
All Collected Stats since June 2016: 42 29 1
2021 Stats: 8 11 0
April Stats: 0 1 0

Inbound Traffic (Arrivals) - 0

No inbound traffic.


Outbound Traffic (Departures) - 0

No outbound traffic.


Local Traffic (Pattern) - 0

No local traffic.